Norseman, Australia
Current Conditions -  °F | °C
As of 3:00 PM on Friday 28 Nov 2014 (Local Time) from YPKG Reporting Station
Broken Clouds Broken Clouds  
Wind Chill: 73°   Ceiling: 6600
Heat Index: 73°   Visibility: 6mi
Dew Point: 66°   Wind: 16mph
Humidity: 78%   Direction: 120°ESE
Pressure: 29.68"   Gusts: NA
Location:  32.2°S, 121.78°E
Report Text: YPKG 280700Z AUTO 12014KT 9999 // SCT044 SCT057 BKN066 23/19 Q1005
Loading
Personal Weather Stations






























Interactive Weather Map New forecast layout! Learn more

10-Day Weather Forecast

Advertisements
Track Severe Weather on mobile